sensor_id;sensor_type;location;lat;lon;timestamp;P1;durP1;ratioP1;P2;durP2;ratioP2
41923;SDS011;27613;48.116;11.656;2023-02-21T00:01:38;4.50;;;2.17;;
41923;SDS011;27613;48.116;11.656;2023-02-21T00:04:22;4.60;;;2.38;;
41923;SDS011;27613;48.116;11.656;2023-02-21T00:07:06;3.20;;;1.80;;
41923;SDS011;27613;48.116;11.656;2023-02-21T00:09:50;2.60;;;1.77;;
41923;SDS011;27613;48.116;11.656;2023-02-21T00:12:34;5.68;;;1.90;;
41923;SDS011;27613;48.116;11.656;2023-02-21T00:15:18;7.93;;;1.98;;
41923;SDS011;27613;48.116;11.656;2023-02-21T00:18:03;2.20;;;1.42;;
41923;SDS011;27613;48.116;11.656;2023-02-21T00:20:47;3.85;;;1.77;;
41923;SDS011;27613;48.116;11.656;2023-02-21T00:23:34;9.73;;;2.53;;
41923;SDS011;27613;48.116;11.656;2023-02-21T00:26:20;5.00;;;1.90;;
41923;SDS011;27613;48.116;11.656;2023-02-21T00:29:05;5.38;;;1.83;;
41923;SDS011;27613;48.116;11.656;2023-02-21T00:31:49;3.97;;;1.90;;
41923;SDS011;27613;48.116;11.656;2023-02-21T00:34:33;12.98;;;2.20;;
41923;SDS011;27613;48.116;11.656;2023-02-21T00:37:17;2.63;;;1.80;;
41923;SDS011;27613;48.116;11.656;2023-02-21T00:40:02;3.67;;;1.70;;
41923;SDS011;27613;48.116;11.656;2023-02-21T00:42:46;4.47;;;1.80;;
41923;SDS011;27613;48.116;11.656;2023-02-21T00:45:30;4.25;;;1.80;;
41923;SDS011;27613;48.116;11.656;2023-02-21T00:48:21;3.55;;;2.10;;
41923;SDS011;27613;48.116;11.656;2023-02-21T00:51:06;2.92;;;1.48;;
41923;SDS011;27613;48.116;11.656;2023-02-21T00:53:51;3.58;;;1.90;;
41923;SDS011;27613;48.116;11.656;2023-02-21T00:56:35;3.50;;;2.08;;
41923;SDS011;27613;48.116;11.656;2023-02-21T00:59:19;2.88;;;1.80;;
41923;SDS011;27613;48.116;11.656;2023-02-21T01:02:03;2.97;;;2.05;;
41923;SDS011;27613;48.116;11.656;2023-02-21T01:04:47;2.22;;;1.70;;
41923;SDS011;27613;48.116;11.656;2023-02-21T01:07:32;3.10;;;1.67;;
41923;SDS011;27613;48.116;11.656;2023-02-21T01:10:16;5.75;;;2.17;;
41923;SDS011;27613;48.116;11.656;2023-02-21T01:13:00;5.65;;;2.10;;
41923;SDS011;27613;48.116;11.656;2023-02-21T01:15:44;2.95;;;1.92;;
41923;SDS011;27613;48.116;11.656;2023-02-21T01:18:28;5.13;;;1.98;;
41923;SDS011;27613;48.116;11.656;2023-02-21T01:21:13;4.68;;;1.88;;
41923;SDS011;27613;48.116;11.656;2023-02-21T01:23:58;3.92;;;1.90;;
41923;SDS011;27613;48.116;11.656;2023-02-21T01:26:42;3.78;;;2.13;;
41923;SDS011;27613;48.116;11.656;2023-02-21T01:29:26;3.72;;;1.92;;
41923;SDS011;27613;48.116;11.656;2023-02-21T01:32:10;2.70;;;1.83;;
41923;SDS011;27613;48.116;11.656;2023-02-21T01:34:54;4.72;;;2.17;;
41923;SDS011;27613;48.116;11.656;2023-02-21T01:37:39;2.47;;;1.70;;
41923;SDS011;27613;48.116;11.656;2023-02-21T01:40:23;5.75;;;2.00;;
41923;SDS011;27613;48.116;11.656;2023-02-21T01:43:12;3.80;;;2.25;;
41923;SDS011;27613;48.116;11.656;2023-02-21T01:45:58;2.83;;;1.90;;
41923;SDS011;27613;48.116;11.656;2023-02-21T01:48:42;15.45;;;2.00;;
41923;SDS011;27613;48.116;11.656;2023-02-21T01:51:27;4.03;;;1.83;;
41923;SDS011;27613;48.116;11.656;2023-02-21T01:54:17;3.03;;;2.00;;
41923;SDS011;27613;48.116;11.656;2023-02-21T01:57:03;11.90;;;2.28;;
41923;SDS011;27613;48.116;11.656;2023-02-21T01:59:49;3.33;;;1.77;;
41923;SDS011;27613;48.116;11.656;2023-02-21T02:02:46;3.25;;;1.90;;
41923;SDS011;27613;48.116;11.656;2023-02-21T02:05:37;3.50;;;1.65;;
41923;SDS011;27613;48.116;11.656;2023-02-21T02:08:24;3.78;;;1.80;;
41923;SDS011;27613;48.116;11.656;2023-02-21T02:19:54;2.60;;;1.40;;
41923;SDS011;27613;48.116;11.656;2023-02-21T02:36:29;3.00;;;1.83;;
41923;SDS011;27613;48.116;11.656;2023-02-21T02:42:15;2.75;;;1.50;;
41923;SDS011;27613;48.116;11.656;2023-02-21T02:44:49;4.72;;;1.98;;
41923;SDS011;27613;48.116;11.656;2023-02-21T02:47:22;6.45;;;2.05;;
41923;SDS011;27613;48.116;11.656;2023-02-21T02:49:52;3.45;;;2.00;;
41923;SDS011;27613;48.116;11.656;2023-02-21T02:52:19;5.05;;;1.88;;
41923;SDS011;27613;48.116;11.656;2023-02-21T02:54:55;3.25;;;1.80;;
41923;SDS011;27613;48.116;11.656;2023-02-21T02:57:27;3.05;;;1.80;;
41923;SDS011;27613;48.116;11.656;2023-02-21T02:59:54;5.80;;;1.98;;
41923;SDS011;27613;48.116;11.656;2023-02-21T03:02:27;3.75;;;1.77;;
41923;SDS011;27613;48.116;11.656;2023-02-21T03:08:07;3.80;;;2.28;;
41923;SDS011;27613;48.116;11.656;2023-02-21T03:13:42;4.57;;;1.67;;
41923;SDS011;27613;48.116;11.656;2023-02-21T03:16:22;7.53;;;2.42;;
41923;SDS011;27613;48.116;11.656;2023-02-21T03:19:08;3.78;;;1.90;;
41923;SDS011;27613;48.116;11.656;2023-02-21T03:21:51;2.60;;;1.80;;
41923;SDS011;27613;48.116;11.656;2023-02-21T03:24:26;5.97;;;2.25;;
41923;SDS011;27613;48.116;11.656;2023-02-21T03:26:55;3.67;;;1.95;;
41923;SDS011;27613;48.116;11.656;2023-02-21T03:29:24;3.80;;;2.03;;
41923;SDS011;27613;48.116;11.656;2023-02-21T03:31:53;3.72;;;2.22;;
41923;SDS011;27613;48.116;11.656;2023-02-21T03:34:23;3.33;;;1.92;;
41923;SDS011;27613;48.116;11.656;2023-02-21T03:36:49;3.65;;;2.15;;
41923;SDS011;27613;48.116;11.656;2023-02-21T03:39:15;22.40;;;2.03;;
41923;SDS011;27613;48.116;11.656;2023-02-21T03:41:40;3.00;;;1.90;;
41923;SDS011;27613;48.116;11.656;2023-02-21T03:44:06;5.15;;;2.40;;
41923;SDS011;27613;48.116;11.656;2023-02-21T03:46:31;3.97;;;1.92;;
41923;SDS011;27613;48.116;11.656;2023-02-21T03:48:58;3.65;;;1.88;;
41923;SDS011;27613;48.116;11.656;2023-02-21T03:51:23;3.40;;;1.92;;
41923;SDS011;27613;48.116;11.656;2023-02-21T03:53:49;3.90;;;2.45;;
41923;SDS011;27613;48.116;11.656;2023-02-21T03:56:14;3.17;;;2.05;;
41923;SDS011;27613;48.116;11.656;2023-02-21T03:58:40;2.80;;;1.80;;
41923;SDS011;27613;48.116;11.656;2023-02-21T04:01:05;2.53;;;1.70;;
41923;SDS011;27613;48.116;11.656;2023-02-21T04:03:31;3.72;;;2.03;;
41923;SDS011;27613;48.116;11.656;2023-02-21T04:05:56;2.47;;;1.77;;
41923;SDS011;27613;48.116;11.656;2023-02-21T04:08:22;2.35;;;1.63;;
41923;SDS011;27613;48.116;11.656;2023-02-21T04:10:47;3.70;;;2.25;;
41923;SDS011;27613;48.116;11.656;2023-02-21T04:13:13;3.00;;;1.80;;
41923;SDS011;27613;48.116;11.656;2023-02-21T04:15:39;3.17;;;1.92;;
41923;SDS011;27613;48.116;11.656;2023-02-21T04:18:04;3.45;;;2.05;;
41923;SDS011;27613;48.116;11.656;2023-02-21T04:20:30;4.97;;;2.03;;
41923;SDS011;27613;48.116;11.656;2023-02-21T04:22:55;5.38;;;2.40;;
41923;SDS011;27613;48.116;11.656;2023-02-21T04:25:21;6.30;;;2.20;;
41923;SDS011;27613;48.116;11.656;2023-02-21T04:27:46;12.48;;;2.10;;
41923;SDS011;27613;48.116;11.656;2023-02-21T04:30:12;4.53;;;2.38;;
41923;SDS011;27613;48.116;11.656;2023-02-21T04:32:37;4.70;;;2.00;;
41923;SDS011;27613;48.116;11.656;2023-02-21T04:35:03;3.60;;;2.00;;
41923;SDS011;27613;48.116;11.656;2023-02-21T04:37:29;3.28;;;1.75;;
41923;SDS011;27613;48.116;11.656;2023-02-21T04:39:54;3.17;;;1.80;;
41923;SDS011;27613;48.116;11.656;2023-02-21T04:42:20;4.13;;;2.10;;
41923;SDS011;27613;48.116;11.656;2023-02-21T04:44:45;4.65;;;1.90;;
41923;SDS011;27613;48.116;11.656;2023-02-21T04:47:10;4.20;;;2.20;;
41923;SDS011;27613;48.116;11.656;2023-02-21T04:49:36;4.47;;;2.22;;
41923;SDS011;27613;48.116;11.656;2023-02-21T04:52:02;3.63;;;1.90;;
41923;SDS011;27613;48.116;11.656;2023-02-21T04:54:27;3.67;;;2.00;;
41923;SDS011;27613;48.116;11.656;2023-02-21T04:56:53;3.75;;;1.88;;
41923;SDS011;27613;48.116;11.656;2023-02-21T04:59:18;3.00;;;1.73;;
41923;SDS011;27613;48.116;11.656;2023-02-21T05:01:44;2.78;;;1.70;;
41923;SDS011;27613;48.116;11.656;2023-02-21T05:04:09;6.82;;;2.85;;
41923;SDS011;27613;48.116;11.656;2023-02-21T05:06:35;5.32;;;2.47;;
41923;SDS011;27613;48.116;11.656;2023-02-21T05:09:01;4.47;;;2.17;;
41923;SDS011;27613;48.116;11.656;2023-02-21T05:11:27;2.92;;;1.83;;
41923;SDS011;27613;48.116;11.656;2023-02-21T05:13:55;10.90;;;2.40;;
41923;SDS011;27613;48.116;11.656;2023-02-21T05:16:21;5.35;;;2.00;;
41923;SDS011;27613;48.116;11.656;2023-02-21T05:18:47;4.82;;;2.13;;
41923;SDS011;27613;48.116;11.656;2023-02-21T05:21:13;5.05;;;2.38;;
41923;SDS011;27613;48.116;11.656;2023-02-21T05:23:40;3.80;;;2.00;;
41923;SDS011;27613;48.116;11.656;2023-02-21T05:26:08;3.53;;;2.00;;
41923;SDS011;27613;48.116;11.656;2023-02-21T05:28:36;5.20;;;1.80;;
41923;SDS011;27613;48.116;11.656;2023-02-21T05:31:02;2.97;;;1.65;;
41923;SDS011;27613;48.116;11.656;2023-02-21T05:33:28;4.20;;;2.20;;
41923;SDS011;27613;48.116;11.656;2023-02-21T05:35:54;4.55;;;2.05;;
41923;SDS011;27613;48.116;11.656;2023-02-21T05:38:22;2.65;;;1.48;;
41923;SDS011;27613;48.116;11.656;2023-02-21T05:40:48;4.18;;;1.80;;
41923;SDS011;27613;48.116;11.656;2023-02-21T05:43:14;4.97;;;2.25;;
41923;SDS011;27613;48.116;11.656;2023-02-21T05:45:40;7.50;;;2.17;;
41923;SDS011;27613;48.116;11.656;2023-02-21T05:48:06;5.45;;;2.08;;
41923;SDS011;27613;48.116;11.656;2023-02-21T05:50:31;3.40;;;2.00;;
41923;SDS011;27613;48.116;11.656;2023-02-21T05:52:57;3.45;;;1.90;;
41923;SDS011;27613;48.116;11.656;2023-02-21T05:55:24;4.88;;;2.17;;
41923;SDS011;27613;48.116;11.656;2023-02-21T05:57:50;3.22;;;1.88;;
41923;SDS011;27613;48.116;11.656;2023-02-21T06:00:17;4.47;;;2.20;;
41923;SDS011;27613;48.116;11.656;2023-02-21T06:02:44;4.30;;;2.15;;
41923;SDS011;27613;48.116;11.656;2023-02-21T06:05:09;3.53;;;2.00;;
41923;SDS011;27613;48.116;11.656;2023-02-21T06:07:35;4.40;;;1.95;;
41923;SDS011;27613;48.116;11.656;2023-02-21T06:10:01;3.40;;;1.70;;
41923;SDS011;27613;48.116;11.656;2023-02-21T06:12:27;2.78;;;1.58;;
41923;SDS011;27613;48.116;11.656;2023-02-21T06:14:53;6.40;;;1.77;;
41923;SDS011;27613;48.116;11.656;2023-02-21T06:17:18;3.58;;;1.70;;
41923;SDS011;27613;48.116;11.656;2023-02-21T06:19:44;3.35;;;1.75;;
41923;SDS011;27613;48.116;11.656;2023-02-21T06:22:09;3.25;;;1.70;;
41923;SDS011;27613;48.116;11.656;2023-02-21T06:24:35;3.05;;;1.70;;
41923;SDS011;27613;48.116;11.656;2023-02-21T06:27:00;7.43;;;1.90;;
41923;SDS011;27613;48.116;11.656;2023-02-21T06:29:26;3.28;;;1.95;;
41923;SDS011;27613;48.116;11.656;2023-02-21T06:31:55;6.20;;;2.35;;
41923;SDS011;27613;48.116;11.656;2023-02-21T06:34:22;4.30;;;2.58;;
41923;SDS011;27613;48.116;11.656;2023-02-21T06:36:50;4.45;;;2.03;;
41923;SDS011;27613;48.116;11.656;2023-02-21T06:39:17;4.68;;;1.92;;
41923;SDS011;27613;48.116;11.656;2023-02-21T06:41:42;4.85;;;1.83;;
41923;SDS011;27613;48.116;11.656;2023-02-21T06:44:08;6.32;;;2.10;;
41923;SDS011;27613;48.116;11.656;2023-02-21T06:46:33;4.20;;;2.40;;
41923;SDS011;27613;48.116;11.656;2023-02-21T06:49:01;3.20;;;1.92;;
41923;SDS011;27613;48.116;11.656;2023-02-21T06:51:40;4.95;;;1.98;;
41923;SDS011;27613;48.116;11.656;2023-02-21T06:54:06;4.97;;;2.13;;
41923;SDS011;27613;48.116;11.656;2023-02-21T06:56:33;4.30;;;1.85;;
41923;SDS011;27613;48.116;11.656;2023-02-21T06:58:58;10.10;;;2.22;;
41923;SDS011;27613;48.116;11.656;2023-02-21T07:01:24;6.38;;;2.03;;
41923;SDS011;27613;48.116;11.656;2023-02-21T07:03:52;19.17;;;1.75;;
41923;SDS011;27613;48.116;11.656;2023-02-21T07:06:18;5.20;;;2.13;;
41923;SDS011;27613;48.116;11.656;2023-02-21T07:08:44;9.18;;;1.85;;
41923;SDS011;27613;48.116;11.656;2023-02-21T07:11:10;3.92;;;1.73;;
41923;SDS011;27613;48.116;11.656;2023-02-21T07:13:36;4.97;;;2.20;;
41923;SDS011;27613;48.116;11.656;2023-02-21T07:16:02;5.97;;;2.00;;
41923;SDS011;27613;48.116;11.656;2023-02-21T07:18:28;2.67;;;1.90;;
41923;SDS011;27613;48.116;11.656;2023-02-21T07:20:53;4.07;;;2.00;;
41923;SDS011;27613;48.116;11.656;2023-02-21T07:23:19;3.13;;;2.05;;
41923;SDS011;27613;48.116;11.656;2023-02-21T07:25:44;5.47;;;3.40;;
41923;SDS011;27613;48.116;11.656;2023-02-21T07:28:10;4.95;;;2.95;;
41923;SDS011;27613;48.116;11.656;2023-02-21T07:30:36;4.65;;;2.00;;
41923;SDS011;27613;48.116;11.656;2023-02-21T07:33:02;4.38;;;2.10;;
41923;SDS011;27613;48.116;11.656;2023-02-21T07:35:37;3.60;;;1.60;;
41923;SDS011;27613;48.116;11.656;2023-02-21T07:38:21;7.22;;;2.00;;
41923;SDS011;27613;48.116;11.656;2023-02-21T07:40:48;4.18;;;2.20;;
41923;SDS011;27613;48.116;11.656;2023-02-21T07:43:14;13.30;;;2.33;;
41923;SDS011;27613;48.116;11.656;2023-02-21T07:45:40;6.95;;;2.42;;
41923;SDS011;27613;48.116;11.656;2023-02-21T07:48:06;3.63;;;2.35;;
41923;SDS011;27613;48.116;11.656;2023-02-21T07:50:31;3.38;;;1.98;;
41923;SDS011;27613;48.116;11.656;2023-02-21T07:52:57;5.63;;;1.60;;
41923;SDS011;27613;48.116;11.656;2023-02-21T07:55:24;6.72;;;2.30;;
41923;SDS011;27613;48.116;11.656;2023-02-21T07:57:50;5.28;;;2.05;;
41923;SDS011;27613;48.116;11.656;2023-02-21T08:00:16;8.05;;;4.60;;
41923;SDS011;27613;48.116;11.656;2023-02-21T08:02:45;3.40;;;1.90;;
41923;SDS011;27613;48.116;11.656;2023-02-21T08:05:13;3.35;;;1.70;;
41923;SDS011;27613;48.116;11.656;2023-02-21T08:07:39;4.30;;;2.17;;
41923;SDS011;27613;48.116;11.656;2023-02-21T08:10:05;3.80;;;2.08;;
41923;SDS011;27613;48.116;11.656;2023-02-21T08:12:31;3.70;;;2.03;;
41923;SDS011;27613;48.116;11.656;2023-02-21T08:14:56;4.22;;;1.98;;
41923;SDS011;27613;48.116;11.656;2023-02-21T08:17:22;2.78;;;1.60;;
41923;SDS011;27613;48.116;11.656;2023-02-21T08:19:47;7.15;;;2.30;;
41923;SDS011;27613;48.116;11.656;2023-02-21T08:22:13;12.48;;;2.17;;
41923;SDS011;27613;48.116;11.656;2023-02-21T08:24:38;5.18;;;2.42;;
41923;SDS011;27613;48.116;11.656;2023-02-21T08:27:04;8.73;;;1.90;;
41923;SDS011;27613;48.116;11.656;2023-02-21T08:29:29;4.75;;;1.85;;
41923;SDS011;27613;48.116;11.656;2023-02-21T08:31:55;9.15;;;1.88;;
41923;SDS011;27613;48.116;11.656;2023-02-21T08:34:20;4.03;;;2.13;;
41923;SDS011;27613;48.116;11.656;2023-02-21T08:36:46;3.72;;;1.50;;
41923;SDS011;27613;48.116;11.656;2023-02-21T08:39:12;3.88;;;1.83;;
41923;SDS011;27613;48.116;11.656;2023-02-21T08:41:40;2.55;;;1.48;;
41923;SDS011;27613;48.116;11.656;2023-02-21T08:44:09;3.13;;;1.70;;
41923;SDS011;27613;48.116;11.656;2023-02-21T08:46:35;3.92;;;1.92;;
41923;SDS011;27613;48.116;11.656;2023-02-21T08:49:02;2.20;;;1.45;;
41923;SDS011;27613;48.116;11.656;2023-02-21T08:51:28;4.32;;;1.85;;
41923;SDS011;27613;48.116;11.656;2023-02-21T08:53:55;3.83;;;1.90;;
41923;SDS011;27613;48.116;11.656;2023-02-21T08:56:21;4.40;;;1.92;;
41923;SDS011;27613;48.116;11.656;2023-02-21T08:58:49;8.30;;;1.90;;
41923;SDS011;27613;48.116;11.656;2023-02-21T09:01:15;4.72;;;1.90;;
41923;SDS011;27613;48.116;11.656;2023-02-21T09:03:41;2.72;;;1.60;;
41923;SDS011;27613;48.116;11.656;2023-02-21T09:06:07;5.18;;;1.63;;
41923;SDS011;27613;48.116;11.656;2023-02-21T09:08:33;8.95;;;1.92;;
41923;SDS011;27613;48.116;11.656;2023-02-21T09:11:00;4.63;;;1.80;;
41923;SDS011;27613;48.116;11.656;2023-02-21T09:13:26;6.55;;;1.88;;
41923;SDS011;27613;48.116;11.656;2023-02-21T09:15:53;5.30;;;2.45;;
41923;SDS011;27613;48.116;11.656;2023-02-21T09:18:19;5.13;;;2.10;;
41923;SDS011;27613;48.116;11.656;2023-02-21T09:20:45;9.80;;;2.35;;
41923;SDS011;27613;48.116;11.656;2023-02-21T09:23:17;3.65;;;1.77;;
41923;SDS011;27613;48.116;11.656;2023-02-21T09:25:44;6.13;;;2.00;;
41923;SDS011;27613;48.116;11.656;2023-02-21T09:28:10;4.30;;;1.63;;
41923;SDS011;27613;48.116;11.656;2023-02-21T09:30:37;4.93;;;1.92;;
41923;SDS011;27613;48.116;11.656;2023-02-21T09:33:03;3.38;;;1.80;;
41923;SDS011;27613;48.116;11.656;2023-02-21T09:35:28;1.98;;;1.35;;
41923;SDS011;27613;48.116;11.656;2023-02-21T09:37:55;5.95;;;1.65;;
41923;SDS011;27613;48.116;11.656;2023-02-21T09:42:54;6.72;;;1.70;;
41923;SDS011;27613;48.116;11.656;2023-02-21T09:45:22;2.78;;;1.38;;
41923;SDS011;27613;48.116;11.656;2023-02-21T09:47:49;7.35;;;1.52;;
41923;SDS011;27613;48.116;11.656;2023-02-21T09:50:19;2.60;;;1.30;;
41923;SDS011;27613;48.116;11.656;2023-02-21T09:52:51;4.32;;;1.50;;
41923;SDS011;27613;48.116;11.656;2023-02-21T09:55:21;3.08;;;1.15;;
41923;SDS011;27613;48.116;11.656;2023-02-21T09:57:50;4.47;;;1.60;;
41923;SDS011;27613;48.116;11.656;2023-02-21T10:00:17;2.45;;;1.40;;
41923;SDS011;27613;48.116;11.656;2023-02-21T10:02:50;2.67;;;1.35;;
41923;SDS011;27613;48.116;11.656;2023-02-21T10:05:32;4.45;;;1.35;;
41923;SDS011;27613;48.116;11.656;2023-02-21T10:08:21;5.10;;;1.55;;
41923;SDS011;27613;48.116;11.656;2023-02-21T10:14:05;4.22;;;1.42;;
41923;SDS011;27613;48.116;11.656;2023-02-21T10:16:36;3.80;;;1.23;;
41923;SDS011;27613;48.116;11.656;2023-02-21T10:19:21;6.10;;;1.42;;
41923;SDS011;27613;48.116;11.656;2023-02-21T10:22:10;4.05;;;1.20;;
41923;SDS011;27613;48.116;11.656;2023-02-21T10:24:46;2.15;;;1.13;;
41923;SDS011;27613;48.116;11.656;2023-02-21T10:27:15;4.13;;;1.70;;
41923;SDS011;27613;48.116;11.656;2023-02-21T10:32:34;3.10;;;1.30;;
41923;SDS011;27613;48.116;11.656;2023-02-21T10:35:01;2.47;;;1.00;;
41923;SDS011;27613;48.116;11.656;2023-02-21T10:37:41;2.28;;;1.05;;
41923;SDS011;27613;48.116;11.656;2023-02-21T10:48:37;2.85;;;1.20;;
41923;SDS011;27613;48.116;11.656;2023-02-21T10:51:14;3.22;;;1.10;;
41923;SDS011;27613;48.116;11.656;2023-02-21T10:53:42;2.25;;;0.95;;
41923;SDS011;27613;48.116;11.656;2023-02-21T11:01:22;1.02;;;0.80;;
41923;SDS011;27613;48.116;11.656;2023-02-21T11:03:58;2.67;;;1.30;;
41923;SDS011;27613;48.116;11.656;2023-02-21T11:08:54;1.70;;;1.05;;
41923;SDS011;27613;48.116;11.656;2023-02-21T11:11:30;2.10;;;1.00;;
41923;SDS011;27613;48.116;11.656;2023-02-21T11:14:12;2.13;;;1.00;;
41923;SDS011;27613;48.116;11.656;2023-02-21T11:19:40;2.20;;;1.00;;
41923;SDS011;27613;48.116;11.656;2023-02-21T11:22:08;2.08;;;1.20;;
41923;SDS011;27613;48.116;11.656;2023-02-21T11:24:43;2.13;;;1.00;;
41923;SDS011;27613;48.116;11.656;2023-02-21T11:27:11;5.72;;;1.00;;
41923;SDS011;27613;48.116;11.656;2023-02-21T11:29:38;1.38;;;0.90;;
41923;SDS011;27613;48.116;11.656;2023-02-21T11:32:11;3.20;;;0.98;;
41923;SDS011;27613;48.116;11.656;2023-02-21T11:34:43;1.48;;;0.73;;
41923;SDS011;27613;48.116;11.656;2023-02-21T11:37:12;2.40;;;0.90;;
41923;SDS011;27613;48.116;11.656;2023-02-21T11:39:38;4.35;;;1.15;;
41923;SDS011;27613;48.116;11.656;2023-02-21T11:42:22;1.15;;;0.68;;
41923;SDS011;27613;48.116;11.656;2023-02-21T11:45:04;1.50;;;0.70;;
41923;SDS011;27613;48.116;11.656;2023-02-21T11:47:38;1.40;;;0.90;;
41923;SDS011;27613;48.116;11.656;2023-02-21T11:50:11;5.25;;;0.95;;
41923;SDS011;27613;48.116;11.656;2023-02-21T11:52:54;4.50;;;1.10;;
41923;SDS011;27613;48.116;11.656;2023-02-21T12:00:50;2.00;;;0.70;;
41923;SDS011;27613;48.116;11.656;2023-02-21T12:06:52;1.60;;;0.90;;
41923;SDS011;27613;48.116;11.656;2023-02-21T12:15:13;1.58;;;0.93;;
41923;SDS011;27613;48.116;11.656;2023-02-21T12:25:57;2.10;;;0.95;;
41923;SDS011;27613;48.116;11.656;2023-02-21T12:31:23;6.65;;;0.80;;
41923;SDS011;27613;48.116;11.656;2023-02-21T12:45:14;2.25;;;0.98;;
41923;SDS011;27613;48.116;11.656;2023-02-21T12:47:57;2.30;;;0.82;;
41923;SDS011;27613;48.116;11.656;2023-02-21T12:50:30;3.45;;;0.73;;
41923;SDS011;27613;48.116;11.656;2023-02-21T12:53:09;0.85;;;0.68;;
41923;SDS011;27613;48.116;11.656;2023-02-21T12:56:01;2.05;;;0.73;;
41923;SDS011;27613;48.116;11.656;2023-02-21T13:04:13;3.17;;;1.10;;
41923;SDS011;27613;48.116;11.656;2023-02-21T13:10:15;1.42;;;0.82;;
41923;SDS011;27613;48.116;11.656;2023-02-21T13:13:03;1.38;;;0.80;;
41923;SDS011;27613;48.116;11.656;2023-02-21T13:15:36;1.00;;;0.80;;
41923;SDS011;27613;48.116;11.656;2023-02-21T13:18:07;1.52;;;0.90;;
41923;SDS011;27613;48.116;11.656;2023-02-21T13:20:38;2.15;;;1.13;;
41923;SDS011;27613;48.116;11.656;2023-02-21T13:26:32;1.63;;;0.90;;
41923;SDS011;27613;48.116;11.656;2023-02-21T13:29:01;2.15;;;0.90;;
41923;SDS011;27613;48.116;11.656;2023-02-21T13:31:27;2.33;;;0.95;;
41923;SDS011;27613;48.116;11.656;2023-02-21T13:34:02;1.85;;;0.90;;
41923;SDS011;27613;48.116;11.656;2023-02-21T13:36:32;1.85;;;0.93;;
41923;SDS011;27613;48.116;11.656;2023-02-21T13:41:35;2.22;;;1.15;;
41923;SDS011;27613;48.116;11.656;2023-02-21T13:44:05;2.63;;;0.93;;
41923;SDS011;27613;48.116;11.656;2023-02-21T14:02:56;1.27;;;0.90;;
41923;SDS011;27613;48.116;11.656;2023-02-21T14:05:25;2.40;;;1.10;;
41923;SDS011;27613;48.116;11.656;2023-02-21T14:08:25;1.45;;;0.77;;
41923;SDS011;27613;48.116;11.656;2023-02-21T14:10:57;2.70;;;1.13;;
41923;SDS011;27613;48.116;11.656;2023-02-21T14:23:56;2.85;;;1.10;;
41923;SDS011;27613;48.116;11.656;2023-02-21T14:32:46;1.02;;;0.88;;
41923;SDS011;27613;48.116;11.656;2023-02-21T14:35:21;1.40;;;0.73;;
41923;SDS011;27613;48.116;11.656;2023-02-21T14:38:06;1.33;;;0.80;;
41923;SDS011;27613;48.116;11.656;2023-02-21T14:43:39;1.15;;;0.90;;
41923;SDS011;27613;48.116;11.656;2023-02-21T14:57:39;2.35;;;0.90;;
41923;SDS011;27613;48.116;11.656;2023-02-21T15:06:07;2.05;;;0.70;;
41923;SDS011;27613;48.116;11.656;2023-02-21T15:08:39;0.88;;;0.75;;
41923;SDS011;27613;48.116;11.656;2023-02-21T15:11:12;2.10;;;0.90;;
41923;SDS011;27613;48.116;11.656;2023-02-21T15:13:43;2.05;;;0.85;;
41923;SDS011;27613;48.116;11.656;2023-02-21T15:16:09;1.67;;;1.02;;
41923;SDS011;27613;48.116;11.656;2023-02-21T15:18:38;5.38;;;1.10;;
41923;SDS011;27613;48.116;11.656;2023-02-21T15:21:18;2.58;;;1.10;;
41923;SDS011;27613;48.116;11.656;2023-02-21T15:23:45;5.82;;;1.38;;
41923;SDS011;27613;48.116;11.656;2023-02-21T15:26:23;1.25;;;0.68;;
41923;SDS011;27613;48.116;11.656;2023-02-21T15:29:11;1.48;;;0.70;;
41923;SDS011;27613;48.116;11.656;2023-02-21T15:31:43;2.83;;;1.00;;
41923;SDS011;27613;48.116;11.656;2023-02-21T15:34:15;1.17;;;0.80;;
41923;SDS011;27613;48.116;11.656;2023-02-21T15:39:42;1.60;;;0.75;;
41923;SDS011;27613;48.116;11.656;2023-02-21T15:42:14;2.47;;;0.90;;
41923;SDS011;27613;48.116;11.656;2023-02-21T15:45:01;3.15;;;0.95;;
41923;SDS011;27613;48.116;11.656;2023-02-21T15:47:31;4.75;;;1.35;;
41923;SDS011;27613;48.116;11.656;2023-02-21T16:00:33;1.10;;;0.68;;
41923;SDS011;27613;48.116;11.656;2023-02-21T16:03:48;2.13;;;1.05;;
41923;SDS011;27613;48.116;11.656;2023-02-21T16:11:24;2.80;;;1.13;;
41923;SDS011;27613;48.116;11.656;2023-02-21T16:14:01;3.58;;;1.30;;
41923;SDS011;27613;48.116;11.656;2023-02-21T16:16:28;1.92;;;0.98;;
41923;SDS011;27613;48.116;11.656;2023-02-21T16:18:58;1.73;;;0.93;;
41923;SDS011;27613;48.116;11.656;2023-02-21T16:21:25;4.35;;;0.85;;
41923;SDS011;27613;48.116;11.656;2023-02-21T16:23:53;5.45;;;1.10;;
41923;SDS011;27613;48.116;11.656;2023-02-21T16:26:20;1.83;;;0.90;;
41923;SDS011;27613;48.116;11.656;2023-02-21T16:28:52;4.80;;;1.45;;
41923;SDS011;27613;48.116;11.656;2023-02-21T16:31:26;3.20;;;1.45;;
41923;SDS011;27613;48.116;11.656;2023-02-21T16:33:53;3.90;;;1.40;;
41923;SDS011;27613;48.116;11.656;2023-02-21T16:36:24;3.58;;;1.30;;
41923;SDS011;27613;48.116;11.656;2023-02-21T16:38:52;6.15;;;2.08;;
41923;SDS011;27613;48.116;11.656;2023-02-21T16:41:18;6.72;;;2.20;;
41923;SDS011;27613;48.116;11.656;2023-02-21T16:43:44;7.60;;;2.40;;
41923;SDS011;27613;48.116;11.656;2023-02-21T16:46:10;5.55;;;2.45;;
41923;SDS011;27613;48.116;11.656;2023-02-21T16:48:37;6.00;;;2.42;;
41923;SDS011;27613;48.116;11.656;2023-02-21T16:51:04;8.40;;;2.38;;
41923;SDS011;27613;48.116;11.656;2023-02-21T16:53:36;10.10;;;2.28;;
41923;SDS011;27613;48.116;11.656;2023-02-21T16:56:02;5.78;;;2.00;;
41923;SDS011;27613;48.116;11.656;2023-02-21T16:58:30;7.13;;;2.33;;
41923;SDS011;27613;48.116;11.656;2023-02-21T17:00:59;7.88;;;2.63;;
41923;SDS011;27613;48.116;11.656;2023-02-21T17:03:45;4.35;;;2.20;;
41923;SDS011;27613;48.116;11.656;2023-02-21T17:06:21;5.53;;;2.03;;
41923;SDS011;27613;48.116;11.656;2023-02-21T17:08:48;6.07;;;2.28;;
41923;SDS011;27613;48.116;11.656;2023-02-21T17:11:14;2.75;;;1.67;;
41923;SDS011;27613;48.116;11.656;2023-02-21T17:13:40;4.72;;;1.90;;
41923;SDS011;27613;48.116;11.656;2023-02-21T17:16:06;7.75;;;2.45;;
41923;SDS011;27613;48.116;11.656;2023-02-21T17:18:33;6.13;;;3.72;;
41923;SDS011;27613;48.116;11.656;2023-02-21T17:20:58;10.27;;;5.47;;
41923;SDS011;27613;48.116;11.656;2023-02-21T17:23:24;23.70;;;4.10;;
41923;SDS011;27613;48.116;11.656;2023-02-21T17:25:50;4.25;;;2.30;;
41923;SDS011;27613;48.116;11.656;2023-02-21T17:28:16;6.00;;;2.38;;
41923;SDS011;27613;48.116;11.656;2023-02-21T17:30:41;5.00;;;2.30;;
41923;SDS011;27613;48.116;11.656;2023-02-21T17:33:07;6.85;;;2.30;;
41923;SDS011;27613;48.116;11.656;2023-02-21T17:35:35;4.38;;;2.40;;
41923;SDS011;27613;48.116;11.656;2023-02-21T17:38:01;6.43;;;2.67;;
41923;SDS011;27613;48.116;11.656;2023-02-21T17:40:26;6.28;;;2.38;;
41923;SDS011;27613;48.116;11.656;2023-02-21T17:42:52;7.60;;;2.30;;
41923;SDS011;27613;48.116;11.656;2023-02-21T17:45:18;5.97;;;1.98;;
41923;SDS011;27613;48.116;11.656;2023-02-21T17:47:45;3.63;;;2.03;;
41923;SDS011;27613;48.116;11.656;2023-02-21T17:50:12;5.32;;;2.78;;
41923;SDS011;27613;48.116;11.656;2023-02-21T17:52:38;10.50;;;6.88;;
41923;SDS011;27613;48.116;11.656;2023-02-21T17:55:04;9.02;;;5.20;;
41923;SDS011;27613;48.116;11.656;2023-02-21T17:57:32;9.88;;;5.13;;
41923;SDS011;27613;48.116;11.656;2023-02-21T18:00:02;8.32;;;4.90;;
41923;SDS011;27613;48.116;11.656;2023-02-21T18:02:33;11.32;;;5.47;;